Сернур

Карта отелей и гостиниц, располагающихся рядом с аэропортом Сернур :

Сернур
Сернур
Марий Эл 56° 55' 9.12" N, 49° 8' 19.2012" E
Код аэродрома ИКАО
ZE9W
Код аэродрома RU
ЗЕ9В
Координаты
N56.91920° E049.13867°
Превышение над уровнем моря
179
Основная полоса
05/23
Курс магнитный
047,6/227,6
Длина основной ВПП
420
Ширина основной ВПП
18
Покрытие основной ВПП
Твёрдое (асфальт)
Освещение ВПП
Нет
Тип: 
Аэродром
Класс аэродрома: 
Принадлежность: 
ГА
Статус: 
Недействующий
Сайт: 
E-mail аэродрома: 
Страна: 
Россия
Регион: 
Марий Эл
Город: 
Сернур
Дополнительная информация: 
Площадка АХР.

Найти трансфер

С помощью этой формы Вы можете найти трансфер из аэропорта Сернур в город, аэропорт или вокзал:

Карта места

Javascript is required to view this map.

Погода в аэропортах:

Авиационная погода в Москва - Шереметьево

Регион: 
Погода METAR: 
UUEE 170530Z 32003MPS 9999 -SN SCT011 M22/M25 Q1010 R24L/490235 R24C/490230 NOSIG
Время наблюдения
2021-01-17T05:30:00Z
Температура C
-22.0
Точка росы
-25.0
Направление ветра
320
Скорость ветра (узлы)
6
Метео видимость
6.21
Явления погоды
-SN
Условия полета
VFR
Аэропорт подробнее: 

Авиационная погода в аэропорту Международный

Регион: 
Погода METAR: 
UKLL 170530Z 00000MPS 9999 -SN OVC028 M08/M09 Q1012 R31/450542 NOSIG
Время наблюдения
2021-01-17T05:30:00Z
Температура C
-8.0
Точка росы
-9.0
Направление ветра
0
Скорость ветра (узлы)
0
Метео видимость
6.21
Явления погоды
-SN
Условия полета
MVFR
Аэропорт подробнее: 

Авиационная погода в Лаппеэнранта

Регион: 
Погода METAR: 
EFLP 301350Z AUTO 13006KT 100V170 9999 -SHSN BKN003 OVC028 00/M00 Q1018
Время наблюдения
2020-11-30T13:50:00Z
Температура C
0.0
Точка росы
0.0
Направление ветра
130
Скорость ветра (узлы)
6
Метео видимость
6.21
Явления погоды
-SHSN
Условия полета
LIFR

Авиационная погода в Стамбуле

Регион: 
Погода METAR: 
LTFM 170550Z 36024KT 2000 SHSN BKN008 BKN020 M00/M01 Q1012 BECMG TL0620 6000 NSW TEMPO FM0630 1600 +SHSN RMK RWY17L 35023KT RWY34L 34024KT RWY16R 34021KT RWY36 36024KT RWY18 36024KT
Время наблюдения
2021-01-17T05:50:00Z
Температура C
0.0
Точка росы
-1.0
Направление ветра
360
Скорость ветра (узлы)
24
Метео видимость
1.24
Явления погоды
SHSN
Условия полета
IFR